createdAt,value
2017-12-06T00:01:17.570Z,101984.16
2017-12-06T00:03:45.899Z,101972.73
2017-12-06T00:06:14.270Z,101977.10
2017-12-06T00:08:42.599Z,101981.12
2017-12-06T00:11:10.926Z,101967.56
2017-12-06T00:16:44.933Z,101966.19
2017-12-06T00:19:13.695Z,101970.33
2017-12-06T00:21:42.098Z,101968.39
2017-12-06T00:24:10.821Z,101957.92
2017-12-06T00:26:39.174Z,101955.62
2017-12-06T00:29:07.514Z,101960.78
2017-12-06T00:31:35.894Z,101966.16
2017-12-06T00:34:04.222Z,101974.03
2017-12-06T00:36:32.982Z,101972.65
2017-12-06T00:39:01.314Z,101966.31
2017-12-06T00:41:30.438Z,101961.44
2017-12-06T00:43:58.762Z,101964.92
2017-12-06T00:46:27.146Z,101965.98
2017-12-06T00:48:56.250Z,101972.92
2017-12-06T00:51:25.378Z,101968.80
2017-12-06T00:53:53.706Z,101973.69
2017-12-06T00:56:22.818Z,101976.72
2017-12-06T00:58:51.970Z,101985.02
2017-12-06T01:01:20.287Z,101981.50
2017-12-06T01:03:49.429Z,101991.65
2017-12-06T01:06:17.783Z,101998.75
2017-12-06T01:08:46.118Z,101994.37
2017-12-06T01:11:14.480Z,101994.14
2017-12-06T01:13:43.761Z,101992.73
2017-12-06T01:16:12.098Z,101997.25
2017-12-06T01:18:41.253Z,101991.03
2017-12-06T01:21:09.606Z,101992.37
2017-12-06T01:23:37.931Z,101991.03
2017-12-06T01:26:06.301Z,101995.55
2017-12-06T01:28:34.645Z,101982.63
2017-12-06T01:31:02.984Z,101986.93
2017-12-06T01:33:32.099Z,101994.05
2017-12-06T01:36:00.843Z,101995.87
2017-12-06T01:38:29.212Z,101984.45
2017-12-06T01:40:57.578Z,101989.72
2017-12-06T01:43:25.938Z,101990.16
2017-12-06T01:45:54.265Z,101988.73
2017-12-06T01:48:23.365Z,101989.42
2017-12-06T01:50:51.755Z,101996.45
2017-12-06T01:53:20.841Z,101983.27
2017-12-06T01:55:49.989Z,101988.20
2017-12-06T01:58:18.318Z,101984.28
2017-12-06T02:00:47.069Z,101978.88
2017-12-06T02:03:15.405Z,101981.91
2017-12-06T02:05:44.329Z,101985.86
2017-12-06T02:08:13.501Z,101985.84
2017-12-06T02:10:42.254Z,101984.22
2017-12-06T02:13:11.441Z,101983.71
2017-12-06T02:15:39.825Z,101977.56
2017-12-06T02:18:08.945Z,101979.16
2017-12-06T02:20:37.335Z,101978.02
2017-12-06T02:23:05.681Z,101966.15
2017-12-06T02:25:35.548Z,101964.34
2017-12-06T02:28:03.921Z,101969.11
2017-12-06T02:30:32.253Z,101962.58
2017-12-06T02:33:01.397Z,101965.29
2017-12-06T02:35:29.764Z,101970.47
2017-12-06T02:37:58.089Z,101964.64
2017-12-06T02:40:44.213Z,101974.34
2017-12-06T02:43:30.080Z,101957.23
2017-12-06T02:45:58.452Z,101953.80
2017-12-06T02:48:26.769Z,101951.50
2017-12-06T02:50:55.873Z,101947.84
2017-12-06T02:53:24.235Z,101953.05
2017-12-06T02:55:52.620Z,101958.14
2017-12-06T02:58:20.953Z,101959.13
2017-12-06T03:00:49.329Z,101947.31
2017-12-06T03:03:18.437Z,101944.56
2017-12-06T03:05:46.794Z,101947.33
2017-12-06T03:08:15.156Z,101948.09
2017-12-06T03:10:43.529Z,101946.78
2017-12-06T03:13:11.865Z,101945.08
2017-12-06T03:15:41.000Z,101952.94
2017-12-06T03:18:09.729Z,101952.06
2017-12-06T03:20:38.061Z,101947.78
2017-12-06T03:23:06.421Z,101945.58
2017-12-06T03:25:34.742Z,101948.11
2017-12-06T03:28:03.148Z,101946.69
2017-12-06T03:30:31.497Z,101949.74
2017-12-06T03:33:00.778Z,101943.61
2017-12-06T03:35:29.132Z,101946.73
2017-12-06T03:37:57.448Z,101945.49
2017-12-06T03:40:25.827Z,101944.95
2017-12-06T03:42:54.198Z,101938.36
2017-12-06T03:45:22.529Z,101947.03
2017-12-06T03:47:50.838Z,101942.59
2017-12-06T03:50:19.209Z,101941.77
2017-12-06T03:52:47.541Z,101939.88
2017-12-06T03:55:17.412Z,101938.64
2017-12-06T03:57:45.744Z,101932.83
2017-12-06T04:00:14.876Z,101932.48
2017-12-06T04:02:43.236Z,101940.19
2017-12-06T04:05:11.592Z,101928.19
2017-12-06T04:07:41.464Z,101924.74
2017-12-06T04:10:09.835Z,101933.52
2017-12-06T04:12:38.164Z,101927.92
2017-12-06T04:15:07.319Z,101928.39
2017-12-06T04:17:35.684Z,101928.24
2017-12-06T04:20:04.020Z,101918.77
2017-12-06T04:22:32.780Z,101914.34
2017-12-06T04:25:01.112Z,101912.97
2017-12-06T04:27:29.466Z,101915.77
2017-12-06T04:29:58.212Z,101906.05
2017-12-06T04:32:26.969Z,101902.55
2017-12-06T04:34:55.308Z,101900.81
2017-12-06T04:37:23.679Z,101902.47
2017-12-06T04:39:52.007Z,101904.29
2017-12-06T04:42:21.134Z,101906.92
2017-12-06T04:44:49.596Z,101907.09
2017-12-06T04:47:18.396Z,101906.10
2017-12-06T04:49:47.528Z,101913.08
2017-12-06T04:52:15.880Z,101908.22
2017-12-06T04:54:44.252Z,101906.97
2017-12-06T04:57:12.584Z,101898.64
2017-12-06T04:59:41.351Z,101896.81
2017-12-06T05:02:09.852Z,101898.13
2017-12-06T05:04:38.187Z,101901.34
2017-12-06T05:07:07.280Z,101900.83
2017-12-06T05:09:36.435Z,101904.48
2017-12-06T05:12:05.156Z,101901.78
2017-12-06T05:14:34.368Z,101907.86
2017-12-06T05:17:03.883Z,101904.79
2017-12-06T05:19:33.080Z,101903.38
2017-12-06T05:22:01.844Z,101903.76
2017-12-06T05:24:30.289Z,101893.20
2017-12-06T05:26:58.636Z,101890.20
2017-12-06T05:29:26.953Z,101889.00
2017-12-06T05:31:56.068Z,101879.37
2017-12-06T05:34:24.391Z,101878.58
2017-12-06T05:36:52.775Z,101876.69
2017-12-06T05:39:21.143Z,101871.80
2017-12-06T05:41:49.476Z,101867.89
2017-12-06T05:44:18.595Z,101860.45
2017-12-06T05:46:47.352Z,101859.98
2017-12-06T05:49:16.103Z,101856.48
2017-12-06T05:51:44.467Z,101859.08
2017-12-06T05:54:12.831Z,101865.78
2017-12-06T05:56:41.167Z,101869.36
2017-12-06T05:59:09.539Z,101866.23
2017-12-06T06:01:37.943Z,101865.72
2017-12-06T06:04:06.314Z,101867.86
2017-12-06T06:06:34.683Z,101868.23
2017-12-06T06:09:03.057Z,101866.12
2017-12-06T06:11:31.427Z,101861.33
2017-12-06T06:14:00.531Z,101859.55
2017-12-06T06:16:28.862Z,101869.16
2017-12-06T06:18:57.223Z,101874.81
2017-12-06T06:21:26.419Z,101879.62
2017-12-06T06:23:55.653Z,101880.89
2017-12-06T06:26:24.017Z,101875.67
2017-12-06T06:28:52.375Z,101866.88
2017-12-06T06:31:21.519Z,101869.56
2017-12-06T06:33:49.852Z,101872.59
2017-12-06T06:36:18.958Z,101872.11
2017-12-06T06:38:47.331Z,101876.53
2017-12-06T06:41:16.060Z,101876.52
2017-12-06T06:43:44.421Z,101875.67
2017-12-06T06:46:14.493Z,101880.17
2017-12-06T06:48:43.631Z,101880.75
2017-12-06T06:51:11.959Z,101880.25
2017-12-06T06:53:41.669Z,101880.21
2017-12-06T06:56:10.831Z,101877.00
2017-12-06T06:58:39.159Z,101883.83
2017-12-06T07:01:08.876Z,101896.00
2017-12-06T07:03:37.223Z,101898.33
2017-12-06T07:06:06.023Z,101894.29
2017-12-06T07:08:35.822Z,101900.83
2017-12-06T07:11:04.192Z,101891.70
2017-12-06T07:13:33.280Z,101895.08
2017-12-06T07:16:02.011Z,101902.66
2017-12-06T07:18:30.380Z,101908.27
2017-12-06T07:20:58.756Z,101902.91
2017-12-06T07:23:27.511Z,101903.92
2017-12-06T07:25:55.861Z,101902.59
2017-12-06T07:28:24.211Z,101909.11
2017-12-06T07:30:52.567Z,101905.66
2017-12-06T07:33:21.283Z,101912.30
2017-12-06T07:35:49.656Z,101913.09
2017-12-06T07:38:18.019Z,101909.64
2017-12-06T07:40:47.119Z,101911.17
2017-12-06T07:43:15.506Z,101911.06
2017-12-06T07:45:44.631Z,101914.47
2017-12-06T07:48:14.128Z,101918.86
2017-12-06T07:50:42.460Z,101905.81
2017-12-06T07:53:11.243Z,101909.11
2017-12-06T07:55:39.631Z,101908.27
2017-12-06T07:58:08.739Z,101908.28
2017-12-06T08:00:37.895Z,101906.22
2017-12-06T08:03:06.248Z,101912.64
2017-12-06T08:05:34.567Z,101906.20
2017-12-06T08:08:02.943Z,101906.30
2017-12-06T08:10:31.267Z,101903.58
2017-12-06T08:12:59.623Z,101898.34
2017-12-06T08:15:27.955Z,101913.16
2017-12-06T08:17:56.750Z,101911.04
2017-12-06T08:20:25.082Z,101913.23
2017-12-06T08:22:53.443Z,101917.09
2017-12-06T08:25:21.831Z,101917.08
2017-12-06T08:27:50.216Z,101908.94
2017-12-06T08:30:18.586Z,101916.35
2017-12-06T08:32:46.911Z,101923.09
2017-12-06T08:35:15.247Z,101922.70
2017-12-06T08:37:43.594Z,101924.44
2017-12-06T08:40:13.463Z,101914.89
2017-12-06T08:42:41.835Z,101925.56
2017-12-06T08:45:10.158Z,101930.81
2017-12-06T08:47:39.639Z,101913.50
2017-12-06T08:50:08.028Z,101926.58
2017-12-06T08:52:37.143Z,101922.02
2017-12-06T08:55:06.255Z,101935.30
2017-12-06T08:57:34.590Z,101922.39
2017-12-06T09:00:05.379Z,101921.97
2017-12-06T09:02:33.708Z,101920.54
2017-12-06T09:05:02.076Z,101923.05
2017-12-06T09:07:30.444Z,101928.41
2017-12-06T09:09:59.168Z,101925.80
2017-12-06T09:12:28.311Z,101931.09
2017-12-06T09:14:56.645Z,101927.99
2017-12-06T09:17:25.002Z,101931.92
2017-12-06T09:19:53.794Z,101936.65
2017-12-06T09:22:22.578Z,101929.70
2017-12-06T09:24:51.302Z,101933.59
2017-12-06T09:27:19.658Z,101934.93
2017-12-06T09:29:49.138Z,101935.16
2017-12-06T09:32:17.486Z,101936.57
2017-12-06T09:34:45.859Z,101936.27
2017-12-06T09:37:14.574Z,101933.25
2017-12-06T09:39:42.946Z,101917.88
2017-12-06T09:42:12.614Z,101931.92
2017-12-06T09:44:40.942Z,101929.42
2017-12-06T09:47:09.314Z,101921.39
2017-12-06T09:49:37.634Z,101912.25
2017-12-06T09:52:06.722Z,101916.25
2017-12-06T09:54:35.838Z,101921.50
2017-12-06T09:57:04.159Z,101917.00
2017-12-06T09:59:32.531Z,101913.34
2017-12-06T10:02:00.887Z,101915.25
2017-12-06T10:04:30.593Z,101907.76
2017-12-06T10:06:58.974Z,101903.09
2017-12-06T10:09:27.317Z,101900.83
2017-12-06T10:11:56.830Z,101905.42
2017-12-06T10:14:25.946Z,101902.89
2017-12-06T10:16:54.299Z,101900.70
2017-12-06T10:19:24.139Z,101896.89
2017-12-06T10:21:52.498Z,101886.20
2017-12-06T10:24:20.870Z,101893.34
2017-12-06T10:26:49.965Z,101881.81
2017-12-06T10:29:19.090Z,101890.35
2017-12-06T10:31:47.441Z,101881.41
2017-12-06T10:34:15.773Z,101879.30
2017-12-06T10:36:45.489Z,101882.97
2017-12-06T10:39:13.825Z,101882.84
2017-12-06T10:41:42.226Z,101879.27
2017-12-06T10:44:10.587Z,101893.97
2017-12-06T10:46:38.970Z,101879.81
2017-12-06T10:49:07.301Z,101884.64
2017-12-06T10:51:36.450Z,101875.41
2017-12-06T10:54:04.785Z,101879.52
2017-12-06T10:56:33.893Z,101879.59
2017-12-06T10:59:02.214Z,101880.39
2017-12-06T11:01:31.330Z,101877.19
2017-12-06T11:03:59.713Z,101873.87
2017-12-06T11:06:28.077Z,101862.38
2017-12-06T11:08:56.455Z,101859.98
2017-12-06T11:11:24.917Z,101860.73
2017-12-06T11:13:53.301Z,101865.98
2017-12-06T11:16:21.694Z,101866.88
2017-12-06T11:18:51.190Z,101852.38
2017-12-06T11:21:19.539Z,101861.95
2017-12-06T11:23:48.341Z,101857.95
2017-12-06T11:26:16.713Z,101850.91
2017-12-06T11:28:46.448Z,101853.69
2017-12-06T11:31:14.829Z,101861.31
2017-12-06T11:33:43.153Z,101854.31
2017-12-06T11:36:12.253Z,101853.47
2017-12-06T11:38:40.625Z,101855.17
2017-12-06T11:41:08.957Z,101857.37
2017-12-06T11:43:37.313Z,101856.98
2017-12-06T11:46:05.685Z,101860.70
2017-12-06T11:48:34.097Z,101853.98
2017-12-06T11:51:02.465Z,101848.20
2017-12-06T11:53:31.965Z,101844.98
2017-12-06T11:56:00.397Z,101851.17
2017-12-06T11:58:28.733Z,101851.05
2017-12-06T12:00:57.077Z,101860.30
2017-12-06T12:03:25.449Z,101861.42
2017-12-06T12:05:53.817Z,101855.05
2017-12-06T12:08:22.365Z,101858.52
2017-12-06T12:10:51.265Z,101859.88
2017-12-06T12:13:19.661Z,101858.77
2017-12-06T12:15:48.061Z,101859.19
2017-12-06T12:18:17.956Z,101854.02
2017-12-06T12:20:46.324Z,101851.31
2017-12-06T12:23:15.120Z,101863.13
2017-12-06T12:25:43.615Z,101853.14
2017-12-06T12:28:12.813Z,101849.13
2017-12-06T12:30:41.300Z,101849.55
2017-12-06T12:33:09.665Z,101849.63
2017-12-06T12:35:38.136Z,101852.20
2017-12-06T12:38:06.548Z,101850.97
2017-12-06T12:40:35.441Z,101849.52
2017-12-06T12:43:05.391Z,101841.11
2017-12-06T12:45:34.586Z,101845.49
2017-12-06T12:48:03.688Z,101846.77
2017-12-06T12:50:32.160Z,101854.83
2017-12-06T12:53:01.461Z,101842.65
2017-12-06T12:55:31.641Z,101838.59
2017-12-06T12:58:00.152Z,101841.15
2017-12-06T13:00:29.304Z,101838.13
2017-12-06T13:02:57.760Z,101835.00
2017-12-06T13:05:26.245Z,101830.95
2017-12-06T13:07:55.148Z,101833.61
2017-12-06T13:10:24.628Z,101834.44
2017-12-06T13:12:54.508Z,101831.74
2017-12-06T13:15:23.028Z,101834.03
2017-12-06T13:17:52.882Z,101836.77
2017-12-06T13:20:21.344Z,101826.98
2017-12-06T13:22:50.157Z,101829.56
2017-12-06T13:25:18.960Z,101835.43
2017-12-06T13:27:47.452Z,101828.15
2017-12-06T13:30:15.952Z,101824.73
2017-12-06T13:32:45.117Z,101821.16
2017-12-06T13:35:13.480Z,101823.26
2017-12-06T13:37:42.728Z,101830.45
2017-12-06T13:40:11.112Z,101823.87
2017-12-06T13:42:42.256Z,101832.65
2017-12-06T13:45:11.152Z,101833.06
2017-12-06T13:47:39.654Z,101829.56
2017-12-06T13:50:08.028Z,101829.64
2017-12-06T13:52:37.296Z,101824.35
2017-12-06T13:55:05.795Z,101824.75
2017-12-06T13:57:34.248Z,101835.82
2017-12-06T14:00:02.671Z,101830.48
2017-12-06T14:02:31.150Z,101832.18
2017-12-06T14:05:00.047Z,101831.77
2017-12-06T14:07:28.555Z,101839.25
2017-12-06T14:09:57.520Z,101836.27
2017-12-06T14:12:27.201Z,101843.61
2017-12-06T14:14:55.647Z,101839.34
2017-12-06T14:17:24.490Z,101837.56
2017-12-06T14:19:52.935Z,101846.84
2017-12-06T14:22:22.964Z,101850.30
2017-12-06T14:24:51.359Z,101846.64
2017-12-06T14:27:21.959Z,101842.28
2017-12-06T14:29:51.225Z,101841.80
2017-12-06T14:32:20.529Z,101845.81
2017-12-06T14:34:49.491Z,101853.58
2017-12-06T14:37:18.673Z,101856.41
2017-12-06T14:39:47.079Z,101847.67
2017-12-06T14:42:15.537Z,101854.27
2017-12-06T14:44:44.327Z,101851.55
2017-12-06T14:47:13.959Z,101868.73
2017-12-06T14:49:42.440Z,101852.39
2017-12-06T14:52:10.856Z,101852.33
2017-12-06T14:54:40.831Z,101856.81
2017-12-06T14:57:10.056Z,101854.19
2017-12-06T14:59:39.204Z,101854.57
2017-12-06T15:02:07.571Z,101846.69
2017-12-06T15:04:35.941Z,101846.66
2017-12-06T15:07:05.751Z,101847.45
2017-12-06T15:09:34.911Z,101854.84
2017-12-06T15:12:03.369Z,101848.86
2017-12-06T15:14:33.122Z,101844.05
2017-12-06T15:17:02.819Z,101848.39
2017-12-06T15:19:31.351Z,101858.06
2017-12-06T15:22:00.523Z,101845.87
2017-12-06T15:24:29.067Z,101847.98
2017-12-06T15:26:57.663Z,101844.04
2017-12-06T15:29:26.101Z,101844.52
2017-12-06T15:31:58.263Z,101831.75
2017-12-06T15:34:27.560Z,101838.39
2017-12-06T15:36:55.943Z,101843.67
2017-12-06T15:39:24.295Z,101839.64
2017-12-06T15:41:53.866Z,101836.98
2017-12-06T15:44:22.270Z,101831.27
2017-12-06T15:46:52.022Z,101837.02
2017-12-06T15:49:22.015Z,101843.67
2017-12-06T15:51:50.843Z,101836.23
2017-12-06T15:54:19.199Z,101832.61
2017-12-06T15:56:48.318Z,101834.31
2017-12-06T15:59:17.203Z,101840.36
2017-12-06T16:01:45.567Z,101837.80
2017-12-06T16:04:13.947Z,101838.78
2017-12-06T16:06:43.494Z,101840.97
2017-12-06T16:09:11.903Z,101838.33
2017-12-06T16:11:41.430Z,101836.91
2017-12-06T16:14:10.947Z,101831.24
2017-12-06T16:16:40.062Z,101836.05
2017-12-06T16:19:08.458Z,101832.93
2017-12-06T16:21:36.792Z,101831.16
2017-12-06T16:24:06.751Z,101835.70
2017-12-06T16:26:36.715Z,101827.77
2017-12-06T16:29:05.536Z,101832.12
2017-12-06T16:31:36.307Z,101829.45
2017-12-06T16:34:06.143Z,101826.95
2017-12-06T16:36:52.234Z,101827.36
2017-12-06T16:39:21.416Z,101825.51
2017-12-06T16:41:49.811Z,101825.63
2017-12-06T16:44:18.879Z,101826.43
2017-12-06T16:46:48.007Z,101828.28
2017-12-06T16:49:16.411Z,101822.55
2017-12-06T16:51:44.819Z,101823.37
2017-12-06T16:54:13.174Z,101814.09
2017-12-06T16:56:41.578Z,101813.17
2017-12-06T16:59:10.694Z,101819.28
2017-12-06T17:01:39.818Z,101829.90
2017-12-06T17:04:08.205Z,101821.29
2017-12-06T17:06:36.655Z,101817.19
2017-12-06T17:09:05.087Z,101817.20
2017-12-06T17:11:33.414Z,101828.62
2017-12-06T17:14:02.187Z,101827.70
2017-12-06T17:16:30.635Z,101825.61
2017-12-06T17:18:58.978Z,101832.28
2017-12-06T17:21:27.770Z,101825.83
2017-12-06T17:23:56.198Z,101826.16
2017-12-06T17:26:24.966Z,101823.48
2017-12-06T17:29:10.982Z,101814.77
2017-12-06T17:31:45.414Z,101819.48
2017-12-06T17:34:14.799Z,101820.79
2017-12-06T17:36:47.770Z,101808.87
2017-12-06T17:39:16.550Z,101818.15
2017-12-06T17:41:44.970Z,101818.70
2017-12-06T17:44:13.423Z,101823.45
2017-12-06T17:46:43.286Z,101824.75
2017-12-06T17:49:12.794Z,101820.82
2017-12-06T17:51:41.147Z,101817.43
2017-12-06T17:54:10.882Z,101816.11
2017-12-06T17:56:39.225Z,101820.34
2017-12-06T17:59:08.367Z,101819.47
2017-12-06T18:01:36.884Z,101823.08
2017-12-06T18:04:06.208Z,101823.56
2017-12-06T18:06:35.671Z,101823.07
2017-12-06T18:09:04.110Z,101820.83
2017-12-06T18:11:32.674Z,101819.13
2017-12-06T18:14:01.072Z,101813.02
2017-12-06T18:16:29.442Z,101820.09
2017-12-06T18:18:58.675Z,101823.23
2017-12-06T18:21:27.458Z,101818.80
2017-12-06T18:23:55.900Z,101823.53
2017-12-06T18:26:25.287Z,101826.13
2017-12-06T18:28:55.393Z,101822.31
2017-12-06T18:31:24.556Z,101818.80
2017-12-06T18:33:54.219Z,101821.09
2017-12-06T18:36:23.452Z,101813.55
2017-12-06T18:38:52.990Z,101821.45
2017-12-06T18:41:21.327Z,101828.02
2017-12-06T18:43:51.906Z,101823.27
2017-12-06T18:46:21.302Z,101831.10
2017-12-06T18:48:49.710Z,101821.88
2017-12-06T18:51:19.771Z,101823.27
2017-12-06T18:53:48.082Z,101824.95
2017-12-06T18:56:16.522Z,101824.44
2017-12-06T18:58:44.898Z,101829.70
2017-12-06T19:01:14.086Z,101824.08
2017-12-06T19:03:43.412Z,101823.21
2017-12-06T19:06:12.287Z,101830.19
2017-12-06T19:08:41.398Z,101827.47
2017-12-06T19:11:10.126Z,101824.58
2017-12-06T19:13:40.216Z,101827.25
2017-12-06T19:16:09.601Z,101825.32
2017-12-06T19:18:38.593Z,101822.97
2017-12-06T19:21:07.814Z,101823.31
2017-12-06T19:23:37.125Z,101825.95
2017-12-06T19:26:06.406Z,101815.08
2017-12-06T19:28:35.695Z,101821.22
2017-12-06T19:31:06.321Z,101825.61
2017-12-06T19:33:35.714Z,101824.28
2017-12-06T19:36:04.067Z,101820.41
2017-12-06T19:38:32.477Z,101817.44
2017-12-06T19:41:01.812Z,101822.63
2017-12-06T19:43:31.381Z,101824.78
2017-12-06T19:46:00.854Z,101816.53
2017-12-06T19:48:30.791Z,101816.19
2017-12-06T19:51:00.994Z,101820.11
2017-12-06T19:53:30.674Z,101814.28
2017-12-06T19:56:00.732Z,101819.02
2017-12-06T19:58:31.073Z,101815.03
2017-12-06T20:00:59.597Z,101816.30
2017-12-06T20:03:29.411Z,101818.05
2017-12-06T20:05:58.943Z,101815.51
2017-12-06T20:08:28.935Z,101815.58
2017-12-06T20:10:58.322Z,101820.06
2017-12-06T20:13:27.863Z,101816.49
2017-12-06T20:15:56.720Z,101819.64
2017-12-06T20:18:26.468Z,101819.80
2017-12-06T20:20:55.637Z,101819.70
2017-12-06T20:23:24.089Z,101815.39
2017-12-06T20:25:54.027Z,101816.23
2017-12-06T20:28:23.175Z,101812.38
2017-12-06T20:30:51.571Z,101814.64
2017-12-06T20:33:20.501Z,101819.41
2017-12-06T20:35:50.178Z,101815.26
2017-12-06T20:38:19.726Z,101821.36
2017-12-06T20:40:50.134Z,101815.74
2017-12-06T20:43:18.591Z,101810.31
2017-12-06T20:45:47.458Z,101812.48
2017-12-06T20:48:16.618Z,101810.46
2017-12-06T20:50:45.770Z,101812.11
2017-12-06T20:53:14.186Z,101806.82
2017-12-06T20:55:43.679Z,101800.32
2017-12-06T20:58:13.162Z,101799.69
2017-12-06T21:00:41.539Z,101803.19
2017-12-06T21:03:11.346Z,101796.14
2017-12-06T21:05:40.449Z,101809.44
2017-12-06T21:08:11.738Z,101797.93
2017-12-06T21:10:40.706Z,101802.70
2017-12-06T21:13:09.896Z,101805.39
2017-12-06T21:15:39.285Z,101800.72
2017-12-06T21:18:07.729Z,101791.86
2017-12-06T21:20:36.173Z,101794.52
2017-12-06T21:23:05.833Z,101804.59
2017-12-06T21:25:35.266Z,101801.19
2017-12-06T21:28:03.628Z,101804.38
2017-12-06T21:30:31.994Z,101800.48
2017-12-06T21:33:00.637Z,101809.73
2017-12-06T21:35:29.797Z,101802.34
2017-12-06T21:37:58.141Z,101803.03
2017-12-06T21:40:26.629Z,101801.56
2017-12-06T21:42:55.132Z,101803.75
2017-12-06T21:45:23.516Z,101800.17
2017-12-06T21:47:51.916Z,101801.16
2017-12-06T21:50:21.180Z,101801.30
2017-12-06T21:52:51.924Z,101797.15
2017-12-06T21:55:20.320Z,101792.31
2017-12-06T21:57:49.648Z,101798.33
2017-12-06T22:00:45.474Z,101792.67
2017-12-06T22:03:14.148Z,101797.15
2017-12-06T22:05:42.540Z,101794.06
2017-12-06T22:08:12.541Z,101788.04
2017-12-06T22:10:42.769Z,101788.84
2017-12-06T22:13:11.176Z,101791.02
2017-12-06T22:15:39.592Z,101789.24
2017-12-06T22:18:08.728Z,101781.87
2017-12-06T22:20:37.169Z,101787.04
2017-12-06T22:23:05.538Z,101779.16
2017-12-06T22:25:34.561Z,101777.05
2017-12-06T22:28:03.324Z,101782.65
2017-12-06T22:30:33.153Z,101784.38
2017-12-06T22:33:02.349Z,101777.47
2017-12-06T22:35:30.712Z,101775.36
2017-12-06T22:37:59.116Z,101779.76
2017-12-06T22:40:29.333Z,101780.41
2017-12-06T22:42:58.472Z,101767.78
2017-12-06T22:45:27.203Z,101760.73
2017-12-06T22:47:55.618Z,101763.30
2017-12-06T22:53:24.164Z,101764.23
2017-12-06T22:55:53.996Z,101757.29
2017-12-06T22:58:23.864Z,101763.08
2017-12-06T23:00:52.232Z,101758.14
2017-12-06T23:03:20.613Z,101755.45
2017-12-06T23:05:50.519Z,101752.89
2017-12-06T23:08:19.604Z,101754.55
2017-12-06T23:10:48.075Z,101752.80
2017-12-06T23:13:17.194Z,101757.94
2017-12-06T23:15:45.553Z,101745.63
2017-12-06T23:18:13.896Z,101737.79
2017-12-06T23:20:42.349Z,101732.44
2017-12-06T23:23:11.065Z,101736.47
2017-12-06T23:25:39.413Z,101732.00
2017-12-06T23:28:08.872Z,101739.06
2017-12-06T23:30:37.232Z,101732.93
2017-12-06T23:33:06.402Z,101729.87
2017-12-06T23:35:34.763Z,101731.20
2017-12-06T23:38:03.097Z,101724.98
2017-12-06T23:40:31.464Z,101729.02
2017-12-06T23:43:00.607Z,101730.71
2017-12-06T23:45:28.979Z,101727.15
2017-12-06T23:47:58.111Z,101724.95
2017-12-06T23:50:26.423Z,101714.02
2017-12-06T23:52:55.535Z,101717.08
2017-12-06T23:55:23.875Z,101713.53
2017-12-06T23:57:52.203Z,101711.73
